createdAt,value
2022-08-07T00:02:37.663Z,27.15
2022-08-07T00:09:16.502Z,27.15
2022-08-07T00:16:01.419Z,27.16
2022-08-07T00:22:40.499Z,27.15
2022-08-07T00:29:37.349Z,27.13
2022-08-07T00:36:09.928Z,27.12
2022-08-07T00:42:50.375Z,27.09
2022-08-07T00:49:24.577Z,27.12
2022-08-07T00:56:01.083Z,27.11
2022-08-07T01:02:37.852Z,27.11
2022-08-07T01:09:07.310Z,27.14
2022-08-07T01:16:00.739Z,27.14
2022-08-07T01:22:29.253Z,27.14
2022-08-07T01:28:57.954Z,27.19
2022-08-07T01:35:24.425Z,27.13
2022-08-07T01:42:39.181Z,27.07
2022-08-07T01:48:46.542Z,27.02
2022-08-07T01:55:24.085Z,27.09
2022-08-07T02:02:33.137Z,27.15
2022-08-07T02:09:52.512Z,27.23
2022-08-07T02:16:40.547Z,27.31
2022-08-07T02:23:23.832Z,27.26
2022-08-07T02:29:56.466Z,27.19
2022-08-07T02:36:35.361Z,27.4
2022-08-07T02:43:15.909Z,27.16
2022-08-07T02:49:59.917Z,27.2
2022-08-07T02:56:54.601Z,27.05
2022-08-07T03:03:49.592Z,26.99
2022-08-07T03:10:32.566Z,27.03
2022-08-07T03:17:08.666Z,27.06
2022-08-07T03:24:17.472Z,27.04
2022-08-07T03:30:30.593Z,27.04
2022-08-07T03:37:12.074Z,27
2022-08-07T03:43:57.025Z,26.97
2022-08-07T03:50:39.633Z,27.03
2022-08-07T03:58:32.839Z,27.02
2022-08-07T04:04:19.959Z,27.03
2022-08-07T04:10:53.745Z,27.01
2022-08-07T04:18:19.682Z,27.03
2022-08-07T04:24:26.928Z,27.01
2022-08-07T04:30:59.973Z,26.99
2022-08-07T04:37:28.792Z,27
2022-08-07T04:44:18.217Z,26.96
2022-08-07T04:51:36.517Z,26.95
2022-08-07T04:59:09.084Z,26.98
2022-08-07T05:06:16.265Z,26.99
2022-08-07T05:14:45.131Z,26.99
2022-08-07T05:20:33.954Z,27.03
2022-08-07T05:28:01.785Z,27
2022-08-07T05:34:13.519Z,27
2022-08-07T05:40:56.019Z,26.96
2022-08-07T05:48:02.302Z,27.02
2022-08-07T05:54:44.224Z,27.02
2022-08-07T06:01:25.896Z,27.04
2022-08-07T06:08:29.660Z,27.17
2022-08-07T06:15:05.429Z,27.14
2022-08-07T06:22:12.391Z,27.2
2022-08-07T06:28:18.970Z,27.02
2022-08-07T06:35:02.677Z,27.01
2022-08-07T06:42:01.387Z,27.03
2022-08-07T06:48:38.673Z,27.01
2022-08-07T06:55:30.723Z,27.11
2022-08-07T07:02:14.656Z,27.05
2022-08-07T07:09:05.127Z,27.05
2022-08-07T07:15:50.610Z,27.05
2022-08-07T07:24:05.699Z,27.08
2022-08-07T07:30:09.518Z,27.1
2022-08-07T07:37:05.357Z,27.07
2022-08-07T07:44:14.988Z,27.12
2022-08-07T07:50:41.979Z,27.06
2022-08-07T07:57:29.127Z,27.04
2022-08-07T08:04:27.419Z,27.06
2022-08-07T08:10:59.744Z,27.07
2022-08-07T08:17:56.911Z,27.1
2022-08-07T08:24:45.300Z,27.07
2022-08-07T08:31:58.521Z,27.09
2022-08-07T08:38:45.776Z,27.1
2022-08-07T08:45:58.778Z,27.08
2022-08-07T08:53:10.620Z,27.05
2022-08-07T09:00:15.822Z,27.06
2022-08-07T09:07:28.923Z,27.09
2022-08-07T09:14:58.699Z,27.07
2022-08-07T09:22:22.778Z,27.07
2022-08-07T09:30:02.444Z,27.11
2022-08-07T09:36:46.787Z,27.19
2022-08-07T09:44:03.741Z,27.11
2022-08-07T09:52:09.486Z,27.1
2022-08-07T09:58:31.880Z,27.2
2022-08-07T10:05:59.964Z,27.22
2022-08-07T10:12:57.767Z,27.31
2022-08-07T10:19:53.173Z,27.18
2022-08-07T10:26:55.264Z,27.17
2022-08-07T10:34:05.484Z,27.1
2022-08-07T10:41:47.622Z,27.08
2022-08-07T10:48:44.036Z,27.11
2022-08-07T10:55:53.399Z,27.05
2022-08-07T11:03:11.087Z,27.12
2022-08-07T11:10:21.923Z,27.06
2022-08-07T11:17:43.028Z,27.12
2022-08-07T11:24:47.212Z,27.07
2022-08-07T11:31:52.895Z,27.02
2022-08-07T11:39:07.214Z,26.94
2022-08-07T11:46:20.478Z,27
2022-08-07T11:53:37.791Z,27
2022-08-07T12:01:04.298Z,27
2022-08-07T12:08:11.352Z,26.97
2022-08-07T12:15:36.005Z,27.02
2022-08-07T12:23:01.859Z,27.03
2022-08-07T12:30:26.198Z,27.02
2022-08-07T12:37:16.378Z,27.03
2022-08-07T12:44:05.651Z,27.04
2022-08-07T12:51:50.836Z,26.97
2022-08-07T12:58:53.079Z,27.03
2022-08-07T13:06:16.909Z,27.05
2022-08-07T13:13:46.609Z,27.07
2022-08-07T13:20:44.537Z,27.16
2022-08-07T13:28:06.132Z,27.3
2022-08-07T13:36:00.064Z,27.38
2022-08-07T13:43:02.704Z,27.44
2022-08-07T13:50:32.130Z,27.42
2022-08-07T13:57:14.620Z,27.39
2022-08-07T14:04:08.530Z,27.31
2022-08-07T14:11:01.776Z,27.21
2022-08-07T14:18:24.573Z,27.37
2022-08-07T14:25:29.357Z,27.26
2022-08-07T14:32:25.302Z,27.26
2022-08-07T14:38:59.944Z,27.23
2022-08-07T14:45:46.281Z,27.25
2022-08-07T14:52:38.270Z,27.27
2022-08-07T15:00:03.924Z,27.28
2022-08-07T15:13:21.785Z,27.3
2022-08-07T15:27:33.853Z,27.34
2022-08-07T15:34:18.841Z,27.34
2022-08-07T15:41:23.324Z,27.34
2022-08-07T15:55:17.884Z,27.37
2022-08-07T16:02:15.151Z,27.41
2022-08-07T16:09:12.144Z,27.42
2022-08-07T16:16:43.549Z,27.39
2022-08-07T16:24:02.960Z,27.42
2022-08-07T16:31:50.646Z,27.38
2022-08-07T16:38:57.736Z,27.38
2022-08-07T16:46:21.541Z,27.5
2022-08-07T16:53:27.033Z,27.53
2022-08-07T17:00:33.853Z,27.57
2022-08-07T17:07:51.845Z,27.5
2022-08-07T17:15:09.359Z,27.55
2022-08-07T17:22:15.376Z,27.64
2022-08-07T17:30:13.789Z,27.51
2022-08-07T17:37:09.506Z,27.64
2022-08-07T17:44:33.420Z,27.66
2022-08-07T17:52:00.207Z,27.85
2022-08-07T17:59:01.572Z,27.39
2022-08-07T18:06:16.831Z,27.13
2022-08-07T18:13:41.551Z,27
2022-08-07T18:21:04.921Z,26.89
2022-08-07T18:27:50.444Z,26.74
2022-08-07T18:34:53.603Z,26.65
2022-08-07T18:41:53.525Z,26.64
2022-08-07T18:50:04.622Z,26.59
2022-08-07T18:56:12.492Z,26.82
2022-08-07T19:03:17.990Z,26.95
2022-08-07T19:10:41.203Z,27.06
2022-08-07T19:17:52.562Z,27.05
2022-08-07T19:24:55.600Z,27.08
2022-08-07T19:32:05.583Z,27.14
2022-08-07T19:38:56.938Z,27.2
2022-08-07T19:46:01.422Z,27.14
2022-08-07T19:52:35.186Z,27.25
2022-08-07T19:59:19.194Z,27.16
2022-08-07T20:06:28.694Z,27.31
2022-08-07T20:13:15.714Z,27.22
2022-08-07T20:20:24.171Z,27.21
2022-08-07T20:27:05.409Z,27.14
2022-08-07T20:33:58.837Z,27.18
2022-08-07T20:40:36.971Z,27.19
2022-08-07T20:47:29.085Z,27.19
2022-08-07T20:54:31.915Z,27.2
2022-08-07T21:01:29.686Z,27.35
2022-08-07T21:08:37.408Z,27.35
2022-08-07T21:15:47.387Z,27.39
2022-08-07T21:22:28.533Z,27.44
2022-08-07T21:29:30.296Z,27.21
2022-08-07T21:36:50.141Z,27.21
2022-08-07T21:43:56.807Z,27.14
2022-08-07T21:51:12.426Z,27.14
2022-08-07T21:58:32.525Z,27.07
2022-08-07T22:05:48.363Z,27.04
2022-08-07T22:12:35.249Z,27.01
2022-08-07T22:19:43.305Z,27.01
2022-08-07T22:26:48.645Z,26.98
2022-08-07T22:34:03.566Z,26.95
2022-08-07T22:41:09.308Z,26.96
2022-08-07T22:48:01.612Z,26.95
2022-08-07T22:55:15.040Z,26.98
2022-08-07T23:02:27.479Z,26.95
2022-08-07T23:10:01.305Z,26.96
2022-08-07T23:16:55.166Z,26.92
2022-08-07T23:24:16.839Z,27
2022-08-07T23:31:43.135Z,26.95
2022-08-07T23:38:42.576Z,26.97
2022-08-07T23:46:02.050Z,26.98
2022-08-07T23:53:08.555Z,26.99
